Airfield :
LOGIN :

Register | Disclaimer

   EN    FR    IT 

 










Legend :    VFR   Marginal VFR   IFR   Intensive IFR   Very Intensive IFR
Visi :
Ceiling :
>= 8 km
>= 3000ft
5 to 8 km
1000 to 3000 ft
1500m to 5 km
500 to 1000 ft
800 to 1500m
200 to 500 ft
< 800m
< 200 ft
Symbols :   Thunderstorms  Fog  Heavy snow  Heavy precipitations  Wind > 20 kt
SIGMETs :     Misc.  Thunderstorms  Icing  Turbulence  Mountain Waves  Volcanic Ashes






- Airport Elevation : 319 ft


EIME - Casement Air Base

CURRENT METAR :
  • 150930Z 10004KT 9999 FEW010 SCT160 19/16 Q1003

EXPIRED METARs :
  • 150900Z 08004KT 9999 SCT007 SCT160 18/17 Q1003
  • 150830Z 06004KT 9999 SCT006 BKN013 17/16 Q1003
  • 150800Z 05005KT 020V090 9999 SCT003 BKN005 BKN100 17/16 Q1003
  • 150730Z VRB03KT 6000 -DZ SCT003 BKN100 17/16 Q1003
  • 150700Z VRB03KT 9999 FEW001 SCT030 BKN090 17/16 Q1003

TAF TAF EIME
Valid from the 15 at 09:00 until the 15 at 18:00 UTC


150800Z 1509/1518 VRB03KT 9999 SCT005
TEMPO 1509/1518 4000 SHRA BKN007 SCT030CB
PROB30
TEMPO 1509/1518 2000 TSRA BKN004
BECMG 1512/1514 28010KT
BECMG 1516/1518 34008KT



MET'MAP, your aeronautical weather chart ! - Copyright ORBIFLY December 2007 - Disclaimer

ORBIFLY MET'MAP TEAM :

Programming & Development : Alexandra Zaïnal
Original concept : Baudouin d'Aumeries
Technical & hardware support : Manuel Goepfert
Assistance : Marc-Olivier Méhu




SOURCES & CREDITS :

   NOAA